sensor_id;sensor_type;location;lat;lon;timestamp;pressure;altitude;pressure_sealevel;temperature;humidity
78121;BME280;67585;44.802;10.332;2023-06-19T00:00:38;100942.97;;;24.79;40.28
78121;BME280;67585;44.802;10.332;2023-06-19T00:03:04;100940.69;;;24.32;41.49
78121;BME280;67585;44.802;10.332;2023-06-19T00:05:30;100939.75;;;24.77;40.32
78121;BME280;67585;44.802;10.332;2023-06-19T00:07:55;100943.22;;;24.62;40.66
78121;BME280;67585;44.802;10.332;2023-06-19T00:10:20;100937.34;;;24.14;40.71
78121;BME280;67585;44.802;10.332;2023-06-19T00:12:46;100933.34;;;24.61;40.97
78121;BME280;67585;44.802;10.332;2023-06-19T00:15:14;100950.16;;;24.96;40.01
78121;BME280;67585;44.802;10.332;2023-06-19T00:17:39;100947.25;;;24.64;40.17
78121;BME280;67585;44.802;10.332;2023-06-19T00:20:06;100939.47;;;24.94;40.21
78121;BME280;67585;44.802;10.332;2023-06-19T00:22:31;100935.03;;;24.78;40.64
78121;BME280;67585;44.802;10.332;2023-06-19T00:24:57;100939.91;;;25.09;39.97
78121;BME280;67585;44.802;10.332;2023-06-19T00:27:22;100947.13;;;24.61;40.62
78121;BME280;67585;44.802;10.332;2023-06-19T00:29:51;100933.72;;;24.59;39.88
78121;BME280;67585;44.802;10.332;2023-06-19T00:32:16;100938.63;;;24.29;41.05
78121;BME280;67585;44.802;10.332;2023-06-19T00:34:42;100923.50;;;24.23;41.04
78121;BME280;67585;44.802;10.332;2023-06-19T00:37:08;100927.41;;;24.46;40.47
78121;BME280;67585;44.802;10.332;2023-06-19T00:39:35;100937.81;;;24.28;40.50
78121;BME280;67585;44.802;10.332;2023-06-19T00:42:00;100944.97;;;24.54;40.20
78121;BME280;67585;44.802;10.332;2023-06-19T00:44:26;100948.03;;;24.40;40.43
78121;BME280;67585;44.802;10.332;2023-06-19T00:46:56;100956.50;;;23.65;41.72
78121;BME280;67585;44.802;10.332;2023-06-19T00:49:22;100920.25;;;23.96;41.23
78121;BME280;67585;44.802;10.332;2023-06-19T00:51:48;100928.06;;;24.31;41.36
78121;BME280;67585;44.802;10.332;2023-06-19T00:54:14;100942.22;;;24.54;40.73
78121;BME280;67585;44.802;10.332;2023-06-19T00:56:40;100959.88;;;24.53;40.76
78121;BME280;67585;44.802;10.332;2023-06-19T00:59:08;100923.47;;;23.98;40.97
78121;BME280;67585;44.802;10.332;2023-06-19T01:01:37;100954.25;;;24.25;40.53
78121;BME280;67585;44.802;10.332;2023-06-19T01:04:02;100941.59;;;24.24;40.98
78121;BME280;67585;44.802;10.332;2023-06-19T01:06:33;100961.34;;;24.63;40.35
78121;BME280;67585;44.802;10.332;2023-06-19T01:09:07;100951.06;;;24.47;40.27
78121;BME280;67585;44.802;10.332;2023-06-19T01:11:43;100944.81;;;24.14;41.02
78121;BME280;67585;44.802;10.332;2023-06-19T01:14:15;100967.66;;;24.26;41.01
78121;BME280;67585;44.802;10.332;2023-06-19T01:16:43;100940.00;;;24.10;41.47
78121;BME280;67585;44.802;10.332;2023-06-19T01:19:15;100941.47;;;23.96;41.06
78121;BME280;67585;44.802;10.332;2023-06-19T01:21:42;100960.41;;;24.09;41.02
78121;BME280;67585;44.802;10.332;2023-06-19T01:24:08;100952.13;;;23.97;40.94
78121;BME280;67585;44.802;10.332;2023-06-19T01:26:33;100957.88;;;24.04;41.41
78121;BME280;67585;44.802;10.332;2023-06-19T01:28:59;100967.44;;;24.56;40.91
78121;BME280;67585;44.802;10.332;2023-06-19T01:31:31;100930.09;;;23.85;41.34
78121;BME280;67585;44.802;10.332;2023-06-19T01:34:01;100973.28;;;24.30;41.51
78121;BME280;67585;44.802;10.332;2023-06-19T01:36:27;100959.97;;;24.44;40.62
78121;BME280;67585;44.802;10.332;2023-06-19T01:38:57;100933.88;;;23.80;41.81
78121;BME280;67585;44.802;10.332;2023-06-19T01:41:23;100938.31;;;23.73;41.88
78121;BME280;67585;44.802;10.332;2023-06-19T01:43:50;100936.28;;;23.82;41.64
78121;BME280;67585;44.802;10.332;2023-06-19T01:46:16;100934.38;;;24.07;41.44
78121;BME280;67585;44.802;10.332;2023-06-19T01:48:41;100971.31;;;24.43;40.74
78121;BME280;67585;44.802;10.332;2023-06-19T01:51:07;100966.09;;;23.80;42.03
78121;BME280;67585;44.802;10.332;2023-06-19T01:53:33;100967.94;;;23.55;42.60
78121;BME280;67585;44.802;10.332;2023-06-19T01:56:00;100950.66;;;24.00;41.64
78121;BME280;67585;44.802;10.332;2023-06-19T01:58:25;100954.66;;;24.02;41.54
78121;BME280;67585;44.802;10.332;2023-06-19T02:00:51;100954.41;;;23.95;41.94
78121;BME280;67585;44.802;10.332;2023-06-19T02:03:16;100991.16;;;24.24;41.68
78121;BME280;67585;44.802;10.332;2023-06-19T02:05:42;100976.00;;;23.39;42.99
78121;BME280;67585;44.802;10.332;2023-06-19T02:08:07;100969.91;;;23.66;42.39
78121;BME280;67585;44.802;10.332;2023-06-19T02:10:33;100979.13;;;24.28;41.45
78121;BME280;67585;44.802;10.332;2023-06-19T02:12:58;100978.66;;;24.14;41.31
78121;BME280;67585;44.802;10.332;2023-06-19T02:15:24;100977.34;;;23.66;43.27
78121;BME280;67585;44.802;10.332;2023-06-19T02:17:49;100979.88;;;23.92;41.62
78121;BME280;67585;44.802;10.332;2023-06-19T02:20:21;100983.75;;;23.58;43.26
78121;BME280;67585;44.802;10.332;2023-06-19T02:22:46;100986.72;;;23.11;44.00
78121;BME280;67585;44.802;10.332;2023-06-19T02:25:12;100987.25;;;23.25;43.15
78121;BME280;67585;44.802;10.332;2023-06-19T02:27:37;100993.78;;;22.99;44.02
78121;BME280;67585;44.802;10.332;2023-06-19T02:30:03;101005.03;;;23.07;44.56
78121;BME280;67585;44.802;10.332;2023-06-19T02:32:30;100984.94;;;23.15;44.24
78121;BME280;67585;44.802;10.332;2023-06-19T02:34:55;100980.34;;;23.40;43.92
78121;BME280;67585;44.802;10.332;2023-06-19T02:37:20;100993.91;;;23.03;44.37
78121;BME280;67585;44.802;10.332;2023-06-19T02:39:46;100967.84;;;23.09;44.52
78121;BME280;67585;44.802;10.332;2023-06-19T02:42:11;100976.47;;;23.20;44.61
78121;BME280;67585;44.802;10.332;2023-06-19T02:44:36;100980.78;;;23.09;44.38
78121;BME280;67585;44.802;10.332;2023-06-19T02:47:02;100996.94;;;23.52;44.12
78121;BME280;67585;44.802;10.332;2023-06-19T02:49:27;100969.56;;;23.68;43.93
78121;BME280;67585;44.802;10.332;2023-06-19T02:51:53;100991.72;;;23.72;43.58
78121;BME280;67585;44.802;10.332;2023-06-19T02:54:18;100980.16;;;23.45;43.62
78121;BME280;67585;44.802;10.332;2023-06-19T02:56:43;100978.13;;;23.54;43.29
78121;BME280;67585;44.802;10.332;2023-06-19T02:59:09;100982.06;;;23.65;43.34
78121;BME280;67585;44.802;10.332;2023-06-19T03:01:34;100965.78;;;23.39;43.56
78121;BME280;67585;44.802;10.332;2023-06-19T03:03:59;100997.31;;;23.96;42.47
78121;BME280;67585;44.802;10.332;2023-06-19T03:06:25;100999.59;;;23.94;43.11
78121;BME280;67585;44.802;10.332;2023-06-19T03:08:51;100983.56;;;23.42;43.73
78121;BME280;67585;44.802;10.332;2023-06-19T03:11:17;100990.00;;;23.67;43.33
78121;BME280;67585;44.802;10.332;2023-06-19T03:13:47;100998.41;;;23.83;43.02
78121;BME280;67585;44.802;10.332;2023-06-19T03:16:12;100977.56;;;23.61;43.46
78121;BME280;67585;44.802;10.332;2023-06-19T03:18:39;100998.44;;;23.62;43.71
78121;BME280;67585;44.802;10.332;2023-06-19T03:21:04;100978.34;;;23.82;43.45
78121;BME280;67585;44.802;10.332;2023-06-19T03:23:29;100993.38;;;23.85;43.23
78121;BME280;67585;44.802;10.332;2023-06-19T03:25:55;100959.13;;;23.95;42.71
78121;BME280;67585;44.802;10.332;2023-06-19T03:28:22;100983.19;;;23.31;44.47
78121;BME280;67585;44.802;10.332;2023-06-19T03:30:47;100946.50;;;23.27;43.66
78121;BME280;67585;44.802;10.332;2023-06-19T03:33:13;100976.59;;;23.44;43.88
78121;BME280;67585;44.802;10.332;2023-06-19T03:35:38;101006.34;;;23.63;43.56
78121;BME280;67585;44.802;10.332;2023-06-19T03:38:03;101002.44;;;23.31;44.54
78121;BME280;67585;44.802;10.332;2023-06-19T03:40:29;101006.53;;;23.04;45.54
78121;BME280;67585;44.802;10.332;2023-06-19T03:42:54;100979.22;;;23.20;45.08
78121;BME280;67585;44.802;10.332;2023-06-19T03:45:19;100992.53;;;22.88;45.51
78121;BME280;67585;44.802;10.332;2023-06-19T03:47:45;100979.91;;;23.17;44.85
78121;BME280;67585;44.802;10.332;2023-06-19T03:50:10;100951.25;;;22.97;45.06
78121;BME280;67585;44.802;10.332;2023-06-19T03:52:36;100995.88;;;23.23;45.61
78121;BME280;67585;44.802;10.332;2023-06-19T03:55:03;101003.28;;;23.44;44.98
78121;BME280;67585;44.802;10.332;2023-06-19T03:57:28;100968.72;;;22.71;45.74
78121;BME280;67585;44.802;10.332;2023-06-19T03:59:54;101014.69;;;23.13;45.36
78121;BME280;67585;44.802;10.332;2023-06-19T04:02:19;101009.00;;;22.88;45.93
78121;BME280;67585;44.802;10.332;2023-06-19T04:04:45;101002.44;;;23.31;45.19
78121;BME280;67585;44.802;10.332;2023-06-19T04:07:10;101006.69;;;23.83;43.87
78121;BME280;67585;44.802;10.332;2023-06-19T04:09:35;100961.97;;;23.86;42.90
78121;BME280;67585;44.802;10.332;2023-06-19T04:12:01;100984.16;;;24.14;42.76
78121;BME280;67585;44.802;10.332;2023-06-19T04:14:27;100977.06;;;24.13;43.16
78121;BME280;67585;44.802;10.332;2023-06-19T04:16:52;100985.44;;;24.41;42.43
78121;BME280;67585;44.802;10.332;2023-06-19T04:19:17;101003.81;;;24.37;42.79
78121;BME280;67585;44.802;10.332;2023-06-19T04:21:43;101005.78;;;24.49;42.49
78121;BME280;67585;44.802;10.332;2023-06-19T04:24:08;101000.59;;;24.35;42.79
78121;BME280;67585;44.802;10.332;2023-06-19T04:26:35;100982.88;;;23.99;42.94
78121;BME280;67585;44.802;10.332;2023-06-19T04:29:01;100991.03;;;24.08;43.64
78121;BME280;67585;44.802;10.332;2023-06-19T04:31:27;101001.75;;;24.59;42.41
78121;BME280;67585;44.802;10.332;2023-06-19T04:33:54;100997.97;;;24.51;42.23
78121;BME280;67585;44.802;10.332;2023-06-19T04:36:21;100997.53;;;24.73;42.65
78121;BME280;67585;44.802;10.332;2023-06-19T04:38:47;100997.50;;;24.61;42.61
78121;BME280;67585;44.802;10.332;2023-06-19T04:41:12;100992.59;;;24.55;42.14
78121;BME280;67585;44.802;10.332;2023-06-19T04:43:39;101000.13;;;24.21;43.39
78121;BME280;67585;44.802;10.332;2023-06-19T04:46:07;101000.50;;;24.56;42.60
78121;BME280;67585;44.802;10.332;2023-06-19T04:48:32;100979.13;;;24.78;41.96
78121;BME280;67585;44.802;10.332;2023-06-19T04:51:00;100980.78;;;24.66;42.67
78121;BME280;67585;44.802;10.332;2023-06-19T04:53:26;101005.09;;;24.77;43.30
78121;BME280;67585;44.802;10.332;2023-06-19T04:55:52;100995.13;;;24.60;42.91
78121;BME280;67585;44.802;10.332;2023-06-19T04:58:19;100986.13;;;24.75;42.91
78121;BME280;67585;44.802;10.332;2023-06-19T05:00:46;100979.16;;;24.65;43.83
78121;BME280;67585;44.802;10.332;2023-06-19T05:03:16;101003.44;;;24.88;43.08
78121;BME280;67585;44.802;10.332;2023-06-19T05:05:43;100976.53;;;24.69;42.01
78121;BME280;67585;44.802;10.332;2023-06-19T05:08:09;101008.75;;;24.56;42.95
78121;BME280;67585;44.802;10.332;2023-06-19T05:10:34;100998.88;;;24.30;43.64
78121;BME280;67585;44.802;10.332;2023-06-19T05:12:59;100994.50;;;24.42;43.42
78121;BME280;67585;44.802;10.332;2023-06-19T05:15:26;100980.22;;;24.03;44.21
78121;BME280;67585;44.802;10.332;2023-06-19T05:17:52;100969.81;;;23.96;44.21
78121;BME280;67585;44.802;10.332;2023-06-19T05:20:17;100981.06;;;24.03;44.86
78121;BME280;67585;44.802;10.332;2023-06-19T05:22:42;100993.84;;;23.87;46.17
78121;BME280;67585;44.802;10.332;2023-06-19T05:25:08;100995.03;;;23.65;46.66
78121;BME280;67585;44.802;10.332;2023-06-19T05:27:34;100973.72;;;23.41;46.72
78121;BME280;67585;44.802;10.332;2023-06-19T05:29:59;100952.00;;;23.27;46.10
78121;BME280;67585;44.802;10.332;2023-06-19T05:32:24;100996.28;;;23.67;45.83
78121;BME280;67585;44.802;10.332;2023-06-19T05:34:50;100973.81;;;23.65;47.02
78121;BME280;67585;44.802;10.332;2023-06-19T05:37:16;100983.66;;;23.33;47.28
78121;BME280;67585;44.802;10.332;2023-06-19T05:39:41;100963.69;;;23.24;48.20
78121;BME280;67585;44.802;10.332;2023-06-19T05:42:07;100975.56;;;23.49;47.90
78121;BME280;67585;44.802;10.332;2023-06-19T05:44:32;100966.16;;;23.38;46.97
78121;BME280;67585;44.802;10.332;2023-06-19T05:46:58;100959.75;;;23.46;47.04
78121;BME280;67585;44.802;10.332;2023-06-19T05:49:23;100965.53;;;23.86;46.21
78121;BME280;67585;44.802;10.332;2023-06-19T05:51:48;100952.41;;;23.38;47.47
78121;BME280;67585;44.802;10.332;2023-06-19T05:54:14;100977.81;;;23.68;47.52
78121;BME280;67585;44.802;10.332;2023-06-19T05:56:39;100972.28;;;23.77;47.65
78121;BME280;67585;44.802;10.332;2023-06-19T05:59:05;100959.47;;;23.60;47.95
78121;BME280;67585;44.802;10.332;2023-06-19T06:01:30;100941.56;;;23.54;47.81
78121;BME280;67585;44.802;10.332;2023-06-19T06:03:56;100964.53;;;24.03;46.49
78121;BME280;67585;44.802;10.332;2023-06-19T06:06:23;100970.66;;;23.76;47.71
78121;BME280;67585;44.802;10.332;2023-06-19T06:08:49;100966.53;;;23.49;47.86
78121;BME280;67585;44.802;10.332;2023-06-19T06:11:14;100943.91;;;23.31;47.76
78121;BME280;67585;44.802;10.332;2023-06-19T06:13:40;100972.66;;;23.33;47.83
78121;BME280;67585;44.802;10.332;2023-06-19T06:16:05;100945.50;;;23.11;48.74
78121;BME280;67585;44.802;10.332;2023-06-19T06:18:30;100989.16;;;23.33;48.60
78121;BME280;67585;44.802;10.332;2023-06-19T06:20:56;100982.09;;;23.44;47.99
78121;BME280;67585;44.802;10.332;2023-06-19T06:23:21;100949.94;;;23.24;48.67
78121;BME280;67585;44.802;10.332;2023-06-19T06:25:47;100972.59;;;23.75;47.50
78121;BME280;67585;44.802;10.332;2023-06-19T06:28:13;100991.22;;;23.91;47.95
78121;BME280;67585;44.802;10.332;2023-06-19T06:30:40;100987.53;;;23.74;48.59
78121;BME280;67585;44.802;10.332;2023-06-19T06:33:05;100994.44;;;23.93;48.04
78121;BME280;67585;44.802;10.332;2023-06-19T06:35:30;100987.25;;;24.13;47.27
78121;BME280;67585;44.802;10.332;2023-06-19T06:37:56;101010.81;;;24.35;46.27
78121;BME280;67585;44.802;10.332;2023-06-19T06:40:21;100990.34;;;23.99;47.33
78121;BME280;67585;44.802;10.332;2023-06-19T06:42:47;101012.22;;;24.53;46.32
78121;BME280;67585;44.802;10.332;2023-06-19T06:45:12;101020.38;;;24.74;45.78
78121;BME280;67585;44.802;10.332;2023-06-19T06:47:38;101014.16;;;24.65;46.26
78121;BME280;67585;44.802;10.332;2023-06-19T06:50:05;101009.19;;;24.83;45.52
78121;BME280;67585;44.802;10.332;2023-06-19T06:52:32;100996.03;;;24.64;45.04
78121;BME280;67585;44.802;10.332;2023-06-19T06:54:58;101027.59;;;24.91;44.13
78121;BME280;67585;44.802;10.332;2023-06-19T06:57:24;101021.47;;;24.98;43.97
78121;BME280;67585;44.802;10.332;2023-06-19T06:59:49;101021.34;;;25.19;43.75
78121;BME280;67585;44.802;10.332;2023-06-19T07:02:15;101005.75;;;24.98;43.72
78121;BME280;67585;44.802;10.332;2023-06-19T07:04:40;100958.81;;;24.82;43.77
78121;BME280;67585;44.802;10.332;2023-06-19T07:07:05;101012.28;;;25.18;44.33
78121;BME280;67585;44.802;10.332;2023-06-19T07:09:31;101005.59;;;25.07;44.95
78121;BME280;67585;44.802;10.332;2023-06-19T07:11:57;100998.06;;;25.44;44.11
78121;BME280;67585;44.802;10.332;2023-06-19T07:14:22;101032.13;;;25.92;43.51
78121;BME280;67585;44.802;10.332;2023-06-19T07:16:49;101032.00;;;26.17;43.59
78121;BME280;67585;44.802;10.332;2023-06-19T07:19:15;100974.72;;;25.70;42.75
78121;BME280;67585;44.802;10.332;2023-06-19T07:21:40;100983.34;;;26.12;42.38
78121;BME280;67585;44.802;10.332;2023-06-19T07:24:06;101015.25;;;26.41;41.89
78121;BME280;67585;44.802;10.332;2023-06-19T07:26:31;101000.38;;;26.46;41.63
78121;BME280;67585;44.802;10.332;2023-06-19T07:28:57;101025.47;;;26.89;41.18
78121;BME280;67585;44.802;10.332;2023-06-19T07:31:22;100979.78;;;26.95;40.05
78121;BME280;67585;44.802;10.332;2023-06-19T07:33:48;101023.88;;;27.42;39.74
78121;BME280;67585;44.802;10.332;2023-06-19T07:36:13;101025.66;;;27.31;39.44
78121;BME280;67585;44.802;10.332;2023-06-19T07:38:42;101026.50;;;27.35;39.26
78121;BME280;67585;44.802;10.332;2023-06-19T07:41:07;101027.69;;;27.54;38.73
78121;BME280;67585;44.802;10.332;2023-06-19T07:43:34;101030.59;;;27.41;37.79
78121;BME280;67585;44.802;10.332;2023-06-19T07:46:00;101031.63;;;27.53;36.46
78121;BME280;67585;44.802;10.332;2023-06-19T07:48:26;101034.09;;;27.58;35.67
78121;BME280;67585;44.802;10.332;2023-06-19T07:50:53;101022.16;;;27.34;36.61
78121;BME280;67585;44.802;10.332;2023-06-19T07:53:19;101023.00;;;27.97;36.57
78121;BME280;67585;44.802;10.332;2023-06-19T07:55:44;101008.50;;;27.84;37.45
78121;BME280;67585;44.802;10.332;2023-06-19T07:58:09;101014.03;;;27.45;38.19
78121;BME280;67585;44.802;10.332;2023-06-19T08:00:35;101028.84;;;27.72;37.05
78121;BME280;67585;44.802;10.332;2023-06-19T08:03:00;100993.88;;;27.44;37.63
78121;BME280;67585;44.802;10.332;2023-06-19T08:05:26;101012.59;;;27.51;38.18
78121;BME280;67585;44.802;10.332;2023-06-19T08:07:51;101014.56;;;27.89;37.54
78121;BME280;67585;44.802;10.332;2023-06-19T08:10:17;101016.97;;;28.14;38.03
78121;BME280;67585;44.802;10.332;2023-06-19T08:12:42;101022.25;;;28.23;39.02
78121;BME280;67585;44.802;10.332;2023-06-19T08:15:09;101001.69;;;28.24;38.50
78121;BME280;67585;44.802;10.332;2023-06-19T08:17:35;101013.78;;;28.62;37.29
78121;BME280;67585;44.802;10.332;2023-06-19T08:20:00;100994.72;;;28.57;36.96
78121;BME280;67585;44.802;10.332;2023-06-19T08:22:26;101016.97;;;28.87;37.31
78121;BME280;67585;44.802;10.332;2023-06-19T08:24:51;101006.88;;;28.75;36.70
78121;BME280;67585;44.802;10.332;2023-06-19T08:27:17;101011.56;;;28.71;37.22
78121;BME280;67585;44.802;10.332;2023-06-19T08:29:42;100995.09;;;28.82;36.85
78121;BME280;67585;44.802;10.332;2023-06-19T08:32:08;100998.00;;;29.19;35.52
78121;BME280;67585;44.802;10.332;2023-06-19T08:34:34;101002.19;;;28.79;36.18
78121;BME280;67585;44.802;10.332;2023-06-19T08:37:00;101014.44;;;28.78;35.87
78121;BME280;67585;44.802;10.332;2023-06-19T08:39:25;101011.09;;;28.92;35.88
78121;BME280;67585;44.802;10.332;2023-06-19T08:41:51;101023.84;;;29.27;35.35
78121;BME280;67585;44.802;10.332;2023-06-19T08:44:18;101023.59;;;29.35;35.22
78121;BME280;67585;44.802;10.332;2023-06-19T08:46:43;101013.06;;;28.42;36.02
78121;BME280;67585;44.802;10.332;2023-06-19T08:49:09;101003.63;;;28.69;36.49
78121;BME280;67585;44.802;10.332;2023-06-19T08:51:38;100983.75;;;29.21;35.64
78121;BME280;67585;44.802;10.332;2023-06-19T08:54:05;101005.81;;;29.74;34.35
78121;BME280;67585;44.802;10.332;2023-06-19T08:56:31;100990.88;;;29.52;34.01
78121;BME280;67585;44.802;10.332;2023-06-19T09:01:35;100977.78;;;29.18;34.40
78121;BME280;67585;44.802;10.332;2023-06-19T09:04:08;101006.66;;;28.87;34.89
78121;BME280;67585;44.802;10.332;2023-06-19T09:06:33;100997.59;;;28.90;35.32
78121;BME280;67585;44.802;10.332;2023-06-19T09:09:04;100996.50;;;29.25;34.90
78121;BME280;67585;44.802;10.332;2023-06-19T09:11:31;100981.09;;;29.65;34.03
78121;BME280;67585;44.802;10.332;2023-06-19T09:13:57;100944.25;;;29.68;34.06
78121;BME280;67585;44.802;10.332;2023-06-19T09:16:23;100979.41;;;29.91;33.58
78121;BME280;67585;44.802;10.332;2023-06-19T09:18:49;100989.53;;;30.17;32.56
78121;BME280;67585;44.802;10.332;2023-06-19T09:21:19;100964.81;;;30.53;32.16
78121;BME280;67585;44.802;10.332;2023-06-19T09:23:47;100991.09;;;30.62;31.96
78121;BME280;67585;44.802;10.332;2023-06-19T09:26:15;100991.84;;;31.22;31.68
78121;BME280;67585;44.802;10.332;2023-06-19T09:28:41;100991.81;;;31.18;30.89
78121;BME280;67585;44.802;10.332;2023-06-19T09:31:07;100989.94;;;29.74;33.09
78121;BME280;67585;44.802;10.332;2023-06-19T09:33:34;101003.56;;;29.87;32.85
78121;BME280;67585;44.802;10.332;2023-06-19T09:36:00;101005.75;;;29.70;32.55
78121;BME280;67585;44.802;10.332;2023-06-19T09:38:28;100996.72;;;29.80;33.02
78121;BME280;67585;44.802;10.332;2023-06-19T09:40:56;101003.97;;;29.55;33.11
78121;BME280;67585;44.802;10.332;2023-06-19T09:46:00;100987.84;;;30.05;31.76
78121;BME280;67585;44.802;10.332;2023-06-19T09:48:28;101003.34;;;30.06;33.48
78121;BME280;67585;44.802;10.332;2023-06-19T09:50:59;100994.84;;;29.88;34.20
78121;BME280;67585;44.802;10.332;2023-06-19T09:53:26;100997.28;;;29.97;33.42
78121;BME280;67585;44.802;10.332;2023-06-19T09:55:52;100999.72;;;29.65;34.09
78121;BME280;67585;44.802;10.332;2023-06-19T09:58:19;100993.06;;;29.69;33.89
78121;BME280;67585;44.802;10.332;2023-06-19T10:00:46;101001.22;;;29.58;33.72
78121;BME280;67585;44.802;10.332;2023-06-19T10:03:13;101011.38;;;29.77;33.99
78121;BME280;67585;44.802;10.332;2023-06-19T10:05:38;101004.63;;;30.16;33.79
78121;BME280;67585;44.802;10.332;2023-06-19T10:08:05;100967.50;;;29.94;33.96
78121;BME280;67585;44.802;10.332;2023-06-19T10:10:31;100980.56;;;29.90;34.18
78121;BME280;67585;44.802;10.332;2023-06-19T10:13:14;101009.09;;;29.87;34.01
78121;BME280;67585;44.802;10.332;2023-06-19T10:15:44;101009.31;;;30.08;33.63
78121;BME280;67585;44.802;10.332;2023-06-19T10:18:17;100997.63;;;30.33;32.84
78121;BME280;67585;44.802;10.332;2023-06-19T10:20:44;101005.03;;;30.66;33.13
78121;BME280;67585;44.802;10.332;2023-06-19T10:23:14;101010.47;;;30.48;33.44
78121;BME280;67585;44.802;10.332;2023-06-19T10:25:45;100987.88;;;30.57;32.89
78121;BME280;67585;44.802;10.332;2023-06-19T10:28:21;101013.63;;;31.09;31.93
78121;BME280;67585;44.802;10.332;2023-06-19T10:31:07;100989.06;;;31.25;31.78
78121;BME280;67585;44.802;10.332;2023-06-19T10:33:37;101010.13;;;31.26;31.48
78121;BME280;67585;44.802;10.332;2023-06-19T10:38:43;100995.88;;;31.32;31.17
78121;BME280;67585;44.802;10.332;2023-06-19T10:41:19;100988.22;;;30.48;31.23
78121;BME280;67585;44.802;10.332;2023-06-19T10:44:01;100990.75;;;30.71;31.30
78121;BME280;67585;44.802;10.332;2023-06-19T10:46:30;100986.53;;;30.33;32.25
78121;BME280;67585;44.802;10.332;2023-06-19T10:48:57;100973.59;;;31.32;30.85
78121;BME280;67585;44.802;10.332;2023-06-19T10:51:28;100965.69;;;31.48;31.20
78121;BME280;67585;44.802;10.332;2023-06-19T10:53:54;100963.34;;;31.82;31.30
78121;BME280;67585;44.802;10.332;2023-06-19T10:56:20;100965.00;;;32.12;31.23
78121;BME280;67585;44.802;10.332;2023-06-19T10:58:46;100958.22;;;32.13;29.71
78121;BME280;67585;44.802;10.332;2023-06-19T11:01:11;100960.59;;;32.47;29.74
78121;BME280;67585;44.802;10.332;2023-06-19T11:03:37;100945.09;;;32.13;29.81
78121;BME280;67585;44.802;10.332;2023-06-19T11:06:02;100938.25;;;32.68;28.53
78121;BME280;67585;44.802;10.332;2023-06-19T11:08:28;100933.06;;;32.67;29.77
78121;BME280;67585;44.802;10.332;2023-06-19T11:10:55;100938.91;;;33.01;28.59
78121;BME280;67585;44.802;10.332;2023-06-19T11:13:20;100939.03;;;32.76;29.38
78121;BME280;67585;44.802;10.332;2023-06-19T11:15:49;100933.41;;;32.83;28.63
78121;BME280;67585;44.802;10.332;2023-06-19T11:18:16;100946.25;;;32.63;28.71
78121;BME280;67585;44.802;10.332;2023-06-19T11:20:48;100929.88;;;32.68;28.85
78121;BME280;67585;44.802;10.332;2023-06-19T11:23:15;100941.50;;;31.99;30.57
78121;BME280;67585;44.802;10.332;2023-06-19T11:25:41;100927.19;;;32.07;30.03
78121;BME280;67585;44.802;10.332;2023-06-19T11:28:14;100935.94;;;32.31;30.16
78121;BME280;67585;44.802;10.332;2023-06-19T11:30:41;100930.72;;;32.54;29.83
78121;BME280;67585;44.802;10.332;2023-06-19T11:33:18;100934.97;;;32.95;29.28
78121;BME280;67585;44.802;10.332;2023-06-19T11:35:50;100930.31;;;31.91;29.49
78121;BME280;67585;44.802;10.332;2023-06-19T11:38:20;100930.31;;;32.34;29.53
78121;BME280;67585;44.802;10.332;2023-06-19T11:40:47;100923.94;;;32.38;29.24
78121;BME280;67585;44.802;10.332;2023-06-19T11:43:22;100926.66;;;32.81;29.28
78121;BME280;67585;44.802;10.332;2023-06-19T11:45:48;100907.28;;;33.29;28.57
78121;BME280;67585;44.802;10.332;2023-06-19T11:48:21;100921.19;;;33.40;28.09
78121;BME280;67585;44.802;10.332;2023-06-19T11:50:47;100909.22;;;32.51;29.14
78121;BME280;67585;44.802;10.332;2023-06-19T11:53:12;100910.03;;;32.16;29.19
78121;BME280;67585;44.802;10.332;2023-06-19T11:55:38;100893.25;;;32.59;28.77
78121;BME280;67585;44.802;10.332;2023-06-19T11:58:04;100895.50;;;32.96;28.49
78121;BME280;67585;44.802;10.332;2023-06-19T12:00:29;100901.03;;;33.04;28.46
78121;BME280;67585;44.802;10.332;2023-06-19T12:02:54;100898.06;;;32.51;28.09
78121;BME280;67585;44.802;10.332;2023-06-19T12:05:22;100890.00;;;32.71;28.28
78121;BME280;67585;44.802;10.332;2023-06-19T12:07:47;100891.25;;;32.63;28.59
78121;BME280;67585;44.802;10.332;2023-06-19T12:10:13;100893.59;;;32.65;28.32
78121;BME280;67585;44.802;10.332;2023-06-19T12:12:38;100879.03;;;33.20;28.28
78121;BME280;67585;44.802;10.332;2023-06-19T12:15:05;100890.63;;;33.15;27.73
78121;BME280;67585;44.802;10.332;2023-06-19T12:17:30;100891.09;;;32.95;27.58
78121;BME280;67585;44.802;10.332;2023-06-19T12:19:56;100881.50;;;33.04;27.65
78121;BME280;67585;44.802;10.332;2023-06-19T12:22:22;100880.69;;;33.10;27.33
78121;BME280;67585;44.802;10.332;2023-06-19T12:24:47;100881.34;;;33.32;27.69
78121;BME280;67585;44.802;10.332;2023-06-19T12:27:12;100890.34;;;33.54;27.06
78121;BME280;67585;44.802;10.332;2023-06-19T12:29:38;100883.44;;;33.77;27.35
78121;BME280;67585;44.802;10.332;2023-06-19T12:32:03;100889.47;;;32.98;28.69
78121;BME280;67585;44.802;10.332;2023-06-19T12:34:29;100880.25;;;33.19;28.97
78121;BME280;67585;44.802;10.332;2023-06-19T12:36:54;100881.22;;;33.57;27.93
78121;BME280;67585;44.802;10.332;2023-06-19T12:39:20;100891.44;;;33.71;27.32
78121;BME280;67585;44.802;10.332;2023-06-19T12:41:45;100874.47;;;33.48;27.84
78121;BME280;67585;44.802;10.332;2023-06-19T12:44:11;100882.91;;;33.37;27.92